Latest Weather Observations for Mawson*

IDT60801

Issued at 12:05 am EST Tuesday 23 September 2014 (issued every 30 minutes, with the page automatically refreshed every 10 minutes)

About weather observations | Map of weather stations | Latest weather observations for ANT | Other Formats
Station Details ID: 300001 Name: MAWSON Lat: -67.60 Lon: 62.88 Height: 9.9 m
Data from the previous 72 hours. | See also: Recent months at Mawson*
Date/Time
EST
Temp
°C
App
Temp
°C
Dew
Point
Rel
Hum
%
Delta-T
°C
Wind Press
QNH
hPa
Press
MSL
hPa
Rain
since 9 am
mm
Dir
 
Spd
km/h
Gust
km/h
Spd
kts
Gust
kts
23/12:03am -12.4 -22.1 -22.1 44 - SSE 32 35 17 19 986.5 - -
23/12:00am -11.8 -17.5 -21.8 43 - S 11 17 6 9 986.4 - -
 
Date/Time
EST
Temp
°C
App
Temp
°C
Dew
Point
Rel
Hum
%
Delta-T
°C
Wind Press
QNH
hPa
Press
MSL
hPa
Rain
since 9 am
mm
Dir
 
Spd
km/h
Gust
km/h
Spd
kts
Gust
kts
22/11:30pm -10.8 -18.6 -22.0 39 - SSE 22 33 12 18 987.0 - -
22/11:00pm -11.0 -19.6 -21.9 40 - SE 26 35 14 19 987.2 - -
22/10:30pm -9.9 -18.1 -21.2 39 - SE 24 35 13 19 987.5 - -
22/10:00pm -10.4 -18.5 -20.0 45 - SE 24 39 13 21 987.7 987.9 -
22/09:46pm -10.8 -20.5 -19.6 48 - SE 32 35 17 19 987.7 - -
22/09:30pm -11.0 -21.6 -20.6 45 - SSE 37 43 20 23 987.7 - -
22/09:00pm -10.5 -21.1 -20.4 44 - SSE 37 41 20 22 988.0 - -
22/08:30pm -10.2 -18.3 -19.6 46 - SSE 24 35 13 19 988.3 - -
22/08:00pm -9.7 -16.5 -18.6 48 - SE 17 28 9 15 988.5 - -
22/07:30pm -9.9 -19.5 -18.6 49 - SSE 32 35 17 19 988.5 - -
22/07:00pm -10.1 -20.7 -19.2 47 - SSE 37 43 20 23 988.6 988.8 -
22/06:30pm -10.2 -21.2 -19.3 47 - SSE 39 46 21 25 988.8 - -
22/06:00pm -9.6 -20.2 -19.8 43 - SSE 37 43 20 23 989.0 - -
22/05:30pm -10.1 -21.1 -20.3 43 - SSE 39 48 21 26 989.3 - -
22/05:00pm -10.5 -21.9 -20.6 43 - SSE 41 48 22 26 989.5 - -
22/04:30pm -10.9 -21.9 -20.0 47 - SSE 39 46 21 25 989.7 - -
22/04:00pm -11.5 -24.2 -21.0 45 - S 48 56 26 30 989.7 989.9 -
22/03:30pm -11.0 -23.0 -20.6 45 - SSE 44 50 24 27 989.6 - -
22/03:00pm -11.3 -23.3 -20.6 46 - SSE 44 50 24 27 989.6 - -
22/02:30pm -10.8 -22.2 -20.4 45 - SSE 41 46 22 25 989.9 - -
22/02:00pm -10.4 -21.4 -20.5 43 - SSE 39 46 21 25 989.8 - -
22/01:30pm -9.5 -20.5 -19.7 43 - SE 39 44 21 24 989.9 - -
22/01:00pm -9.6 -23.1 -20.6 40 - SE 52 59 28 32 989.6 989.8 -
22/12:30pm -9.6 -23.1 -20.9 39 - SE 52 61 28 33 989.5 - -
22/12:00pm -9.7 -22.8 -21.3 38 - SE 50 59 27 32 989.6 - -
22/11:30am -10.2 -23.0 -21.5 39 - SSE 48 57 26 31 989.8 - -
22/11:00am -9.9 -23.0 -21.5 38 - SE 50 63 27 34 989.8 - -
22/10:30am -9.7 -24.2 -21.6 37 - SE 57 69 31 37 989.4 - -
22/10:00am -9.8 -23.3 -22.0 36 - SE 52 69 28 37 989.5 989.7 -
22/09:30am -9.8 -23.3 -22.3 35 - SE 52 69 28 37 989.4 - -
22/09:00am -9.7 -24.0 -21.9 36 - SE 56 69 30 37 989.1 - -
22/08:30am -9.8 -25.1 -22.7 34 - SE 61 76 33 41 988.7 - -
22/08:00am -9.8 -25.8 -23.3 32 - SE 65 82 35 44 988.4 - -
22/07:56am -9.7 -25.3 -22.9 33 - SE 63 82 34 44 988.4 - -
22/07:30am -9.6 -26.6 -23.2 32 - SE 70 87 38 47 988.1 - -
22/07:13am -9.5 -26.3 -23.4 31 - SE 69 87 37 47 988.0 - -
22/07:00am -9.3 -26.7 -22.9 32 - SE 72 87 39 47 987.9 988.1 -
22/06:30am -9.1 -26.1 -22.7 32 - SE 70 91 38 49 987.7 - -
22/06:14am -9.2 -26.9 -22.8 32 - SE 74 93 40 50 987.7 - -
22/06:00am -9.5 -28.4 -22.7 33 - SE 80 95 43 51 987.5 - -
22/05:30am -9.2 -27.7 -22.8 32 - SE 78 98 42 53 986.9 - -
22/05:00am -9.4 -28.8 -22.6 33 - SE 83 102 45 55 987.1 - -
22/04:43am -8.9 -28.1 -22.5 32 - SE 82 102 44 55 987.2 - -
22/04:30am -8.6 -27.8 -22.6 31 - SE 82 96 44 52 987.0 - -
22/04:00am -8.8 -28.6 -22.8 31 - SE 85 100 46 54 987.0 987.2 -
22/03:30am -9.0 -29.2 -22.6 32 - SE 87 102 47 55 986.8 - -
22/03:00am -9.2 -29.4 -22.8 32 - SE 87 102 47 55 986.9 - -
22/02:30am -9.0 -30.0 -22.6 32 - SE 91 109 49 59 986.8 - -
22/02:00am -9.5 -30.5 -22.7 33 - SE 91 109 49 59 987.1 - -
22/01:30am -9.2 -30.9 -22.5 33 - SE 95 113 51 61 987.2 - -
22/01:07am -9.3 -30.6 -22.9 32 - SE 93 111 50 60 987.2 - -
22/01:00am -9.2 -30.9 -22.8 32 - SE 95 111 51 60 987.4 987.6 -
22/12:31am -8.7 -29.7 -22.7 31 - SE 91 109 49 59 987.5 - -
22/12:30am -8.6 -30.0 -23.0 30 - SE 93 109 50 59 987.4 - -
22/12:04am -8.7 -30.4 -22.4 32 - SE 95 113 51 61 987.2 - -
22/12:00am -8.6 -30.9 -22.3 32 - SE 98 115 53 62 987.3 - -
 
Date/Time
EST
Temp
°C
App
Temp
°C
Dew
Point
Rel
Hum
%
Delta-T
°C
Wind Press
QNH
hPa
Press
MSL
hPa
Rain
since 9 am
mm
Dir
 
Spd
km/h
Gust
km/h
Spd
kts
Gust
kts
21/11:31pm -8.1 -29.1 -22.9 29 - SE 91 109 49 59 987.3 - -
21/11:30pm -8.0 -29.0 -23.2 28 - SE 91 107 49 58 987.2 - -
21/11:00pm -8.4 -29.3 -22.1 32 - SSE 91 117 49 63 987.3 - -
21/10:43pm -8.3 -28.1 -22.0 32 - SSE 85 104 46 56 987.4 - -
21/10:30pm -8.2 -28.4 -21.9 32 - SSE 87 104 47 56 987.5 - -
21/10:12pm -7.8 -28.0 -21.9 31 - SSE 87 106 47 57 987.4 - -
21/10:00pm -7.9 -28.1 -21.3 33 - SSE 87 104 47 56 987.9 988.1 -
21/09:38pm -7.6 -27.8 -21.8 31 - SSE 87 106 47 57 987.9 - -
21/09:30pm -8.0 -27.8 -21.4 33 - SSE 85 98 46 53 987.8 - -
21/09:10pm -7.7 -28.6 -21.8 31 - SE 91 109 49 59 987.9 - -
21/09:00pm -7.7 -28.3 -21.8 31 - SE 89 106 48 57 987.9 - -
21/08:30pm -7.9 -28.1 -21.3 33 - SE 87 104 47 56 988.1 - -
21/08:00pm -7.9 -29.2 -21.3 33 - SSE 93 120 50 65 988.2 - -
21/07:30pm -7.8 -29.1 -21.2 33 - SE 93 117 50 63 988.4 - -
21/07:00pm -7.4 -29.1 -21.6 31 - SE 95 119 51 64 988.2 988.4 -
21/06:30pm -7.8 -29.1 -21.6 32 - SE 93 115 50 62 988.6 - -
21/06:00pm -7.7 -27.8 -20.8 34 - SE 87 111 47 60 988.3 - -
21/05:30pm -7.6 -28.5 -20.7 34 - SE 91 113 49 61 988.3 - -
21/05:03pm -7.5 -27.3 -21.0 33 - SE 85 104 46 56 988.5 - -
21/05:00pm -7.8 -27.6 -20.5 35 - SE 85 102 46 55 988.7 - -
21/04:30pm -8.0 -27.4 -20.1 37 - SE 83 106 45 57 989.0 - -
21/04:00pm -7.9 -27.1 -21.0 34 - SE 82 102 44 55 988.8 989.0 -
21/03:30pm -7.9 -26.7 -21.0 34 - SE 80 100 43 54 989.1 - -
21/03:00pm -8.4 -26.5 -21.1 35 - SE 76 95 41 51 989.3 - -
21/02:30pm -8.2 -27.6 -21.2 34 - SE 83 106 45 57 988.7 - -
21/02:00pm -8.7 -27.5 -20.4 38 - SE 80 100 43 54 988.9 - -
21/01:30pm -8.9 -29.0 -20.6 38 - SE 87 111 47 60 988.7 - -
21/01:00pm -9.2 -28.6 -20.3 40 - SE 83 102 45 55 988.6 988.8 -
21/12:30pm -9.2 -28.0 -20.3 40 - SE 80 102 43 55 988.2 - -
21/12:05pm -9.0 -29.1 -20.4 39 - SE 87 107 47 58 987.5 - -
21/12:00pm -9.2 -28.9 -20.3 40 - SE 85 102 46 55 987.6 - -
21/11:30am -9.4 -29.1 -19.6 43 - SE 85 107 46 58 987.2 - -
21/11:00am -9.4 -29.5 -19.4 44 - SE 87 107 47 58 986.9 - -
21/10:30am -9.0 -28.3 -19.3 43 - SE 83 104 45 56 986.6 - -
21/10:00am -8.9 -27.3 -18.9 44 - SE 78 96 42 52 986.7 986.9 -
21/09:30am -8.8 -26.0 -18.8 44 - SE 72 93 39 50 987.2 - -
21/09:14am -8.9 -24.8 -18.6 45 - SE 65 85 35 46 987.4 - -
21/09:00am -9.0 -24.1 -18.0 48 - SE 61 74 33 40 987.5 - -
21/08:30am -8.4 -23.5 -19.3 41 - SE 61 80 33 43 987.7 - -
21/08:00am -8.2 -23.7 -18.0 45 - SE 63 85 34 46 988.1 - -
21/07:32am -8.1 -22.2 -16.4 51 - SE 56 76 30 41 987.8 - -
21/07:30am -8.4 -22.1 -16.2 53 - SE 54 67 29 36 987.9 - -
21/07:00am -8.4 -23.0 -15.6 56 - SE 59 70 32 38 987.5 987.7 -
21/06:30am -8.4 -23.7 -14.4 62 - SE 63 87 34 47 987.4 - -
21/06:12am -8.1 -22.1 -14.5 60 - SE 56 74 30 40 987.5 - -
21/06:00am -8.2 -22.3 -14.0 63 - SE 57 74 31 40 987.3 - -
21/05:30am -8.0 -23.3 -15.0 57 - SE 63 78 34 42 986.8 - -
21/05:03am -7.8 -23.2 -15.5 54 - SE 63 82 34 44 986.8 - -
21/05:00am -7.8 -23.9 -15.7 53 - SE 67 82 36 44 986.7 - -
21/04:30am -7.9 -23.3 -15.8 53 - SE 63 82 34 44 986.5 - -
21/04:05am -8.1 -22.7 -15.3 56 - SE 59 78 32 42 986.7 - -
21/04:00am -8.1 -23.1 -15.1 57 - SE 61 74 33 40 986.7 986.9 -
21/03:30am -7.8 -22.8 -15.2 55 - SE 61 74 33 40 986.2 - -
21/03:15am -7.5 -22.5 -15.4 53 - SE 61 80 33 43 986.1 - -
21/03:00am -7.6 -21.8 -15.0 55 - SE 57 70 31 38 986.4 - -
21/02:30am -8.0 -22.5 -13.8 63 - SE 59 70 32 38 986.4 - -
21/02:00am -7.8 -22.0 -14.4 59 - ESE 57 74 31 40 986.1 - -
21/01:53am -7.7 -20.6 -14.7 57 - ESE 50 72 27 39 985.8 - -
21/01:51am -8.1 -20.1 -13.9 63 - ESE 46 52 25 28 986.2 - -
21/01:31am -7.6 -23.3 -14.2 59 - SE 65 87 35 47 985.5 - -
21/01:30am -7.5 -23.2 -14.1 59 - SE 65 82 35 44 985.5 - -
21/01:04am -7.4 -23.8 -14.4 57 - SE 69 87 37 47 985.4 - -
21/01:00am -7.5 -24.5 -14.5 57 - SE 72 87 39 47 985.6 985.8 -
21/12:30am -7.4 -23.1 -14.2 58 - SE 65 83 35 45 985.8 - -
21/12:00am -7.5 -23.2 -13.9 60 - SE 65 83 35 45 985.8 - -
 
Date/Time
EST
Temp
°C
App
Temp
°C
Dew
Point
Rel
Hum
%
Delta-T
°C
Wind Press
QNH
hPa
Press
MSL
hPa
Rain
since 9 am
mm
Dir
 
Spd
km/h
Gust
km/h
Spd
kts
Gust
kts
20/11:44pm -7.5 -22.4 -13.9 60 - SE 61 82 33 44 985.8 - -
20/11:30pm -7.7 -23.0 -13.7 62 - SE 63 74 34 40 986.0 - -
20/11:00pm -7.5 -22.4 -14.5 57 - SE 61 70 33 38 985.8 - -
20/10:30pm -7.3 -22.2 -13.7 60 - SE 61 74 33 40 985.9 - -
20/10:00pm -7.1 -21.2 -13.7 59 - SE 57 69 31 37 986.1 986.3 -
20/09:30pm -6.7 -19.9 -14.2 55 - ESE 52 72 28 39 986.2 - -
20/09:28pm -7.0 -19.8 -13.4 60 - ESE 50 70 27 38 986.5 - -
20/09:00pm -7.0 -20.9 -13.4 60 - ESE 56 70 30 38 986.4 - -
20/08:47pm -6.6 -19.8 -13.7 57 - ESE 52 70 28 38 986.6 - -
20/08:30pm -6.7 -20.8 -13.6 58 - SE 57 69 31 37 986.6 - -
20/08:00pm -6.6 -20.5 -13.9 56 - SE 56 70 30 38 986.6 - -
20/07:30pm -6.4 -20.3 -13.3 58 - ESE 56 72 30 39 987.0 - -
20/07:00pm -6.1 -20.6 -13.9 54 - SE 59 72 32 39 987.1 987.3 -
20/06:34pm -5.6 -19.2 -15.1 47 - SE 54 72 29 39 987.4 - -
20/06:30pm -5.7 -18.6 -15.4 46 - SE 50 65 27 35 987.5 - -
20/06:00pm -5.8 -18.7 -15.5 46 - SE 50 63 27 34 987.6 - -
20/05:30pm -6.3 -19.2 -15.0 50 - SE 50 57 27 31 987.9 - -
20/05:00pm -6.4 -19.7 -15.1 50 - SE 52 65 28 35 988.1 - -
20/04:30pm -6.0 -20.7 -16.5 43 - SE 59 69 32 37 988.1 - -
20/04:00pm -6.4 -20.7 -16.1 46 - SE 57 70 31 38 988.4 988.6 -
20/03:30pm -7.2 -22.6 -16.8 46 - SE 63 72 34 39 988.5 - -
20/03:00pm -7.2 -21.9 -16.6 47 - SE 59 72 32 39 988.8 - -
20/02:30pm -7.0 -21.7 -16.9 45 - SE 59 69 32 37 989.1 - -
20/02:00pm -7.2 -23.0 -16.3 48 - SE 65 76 35 41 989.6 - -
20/01:30pm -7.0 -21.6 -15.6 50 - SE 59 69 32 37 989.8 - -
20/01:00pm -8.0 -22.2 -15.9 53 - SE 57 72 31 39 990.1 990.3 -
20/12:30pm -6.7 -21.7 -16.6 45 - SE 61 76 33 41 990.4 - -
20/12:00pm -7.4 -22.8 -15.3 53 - SE 63 74 34 40 991.0 - -
20/11:30am -7.7 -21.9 -14.5 58 - SE 57 67 31 36 991.3 - -
20/11:00am -7.7 -23.4 -14.1 60 - SE 65 74 35 40 991.5 - -
20/10:30am -8.0 -22.0 -12.1 72 - SE 57 65 31 35 991.8 - -
20/10:00am -8.0 -22.4 -12.3 71 - SE 59 69 32 37 992.2 992.4 -
20/09:43am -7.5 -21.0 -13.3 63 - SE 54 72 29 39 992.1 - -
20/09:30am -7.8 -21.3 -13.2 65 - SE 54 63 29 34 992.5 - -
20/09:00am -7.7 -21.3 -13.7 62 - SE 54 61 29 33 992.8 - -
20/08:30am -7.5 -20.7 -13.7 61 - SE 52 61 28 33 993.1 - -
20/08:00am -8.1 -20.0 -11.6 76 - SE 46 56 25 30 993.3 - -
20/07:30am -8.0 -21.5 -12.0 73 - SE 54 63 29 34 993.4 - -
20/07:00am -7.7 -20.4 -12.6 68 - SE 50 57 27 31 993.3 993.5 -
20/06:30am -8.0 -20.7 -11.5 76 - SE 50 59 27 32 993.4 - -
20/06:00am -7.8 -20.5 -11.9 72 - SE 50 61 27 33 993.8 - -
20/05:30am -7.6 -19.2 -12.3 69 - SE 44 52 24 28 994.1 - -
20/05:00am -8.1 -20.8 -11.4 77 - SE 50 59 27 32 994.1 - -
20/04:30am -7.7 -19.7 -12.4 69 - SE 46 57 25 31 994.5 - -

Other Formats:

Comma delimited format used in spreadsheet applications
http://www.bom.gov.au/fwo/IDT60803/IDT60803.89564.axf

JavaScript Object Notation format (JSON) in row-major order
http://www.bom.gov.au/fwo/IDT60803/IDT60803.89564.json